createdAt,value
2017-09-16T00:04:13.906Z,4.50
2017-09-16T00:09:17.116Z,5.07
2017-09-16T00:14:20.298Z,4.27
2017-09-16T00:19:23.526Z,4.50
2017-09-16T00:24:26.727Z,4.17
2017-09-16T00:29:29.936Z,4.57
2017-09-16T00:34:33.116Z,4.67
2017-09-16T00:39:36.325Z,5.13
2017-09-16T00:44:39.534Z,3.90
2017-09-16T00:54:52.202Z,4.87
2017-09-16T00:59:55.447Z,4.53
2017-09-16T01:04:58.619Z,5.40
2017-09-16T01:10:01.862Z,4.57
2017-09-16T01:15:05.067Z,4.70
2017-09-16T01:20:08.269Z,4.40
2017-09-16T01:25:11.464Z,4.40
2017-09-16T01:30:14.684Z,4.70
2017-09-16T01:35:17.881Z,4.50
2017-09-16T01:40:21.059Z,3.90
2017-09-16T01:45:24.257Z,4.77
2017-09-16T01:50:27.478Z,4.53
2017-09-16T01:55:30.685Z,4.47
2017-09-16T02:00:34.015Z,4.20
2017-09-16T02:05:37.257Z,5.80
2017-09-16T02:10:41.231Z,4.37
2017-09-16T02:15:44.436Z,4.83
2017-09-16T02:20:47.665Z,5.00
2017-09-16T02:25:50.874Z,4.40
2017-09-16T02:30:54.075Z,5.40
2017-09-16T02:35:57.314Z,5.87
2017-09-16T02:41:01.275Z,5.75
2017-09-16T02:46:04.469Z,5.40
2017-09-16T02:51:07.756Z,9.50
2017-09-16T02:56:11.759Z,9.67
2017-09-16T03:01:15.004Z,7.57
2017-09-16T03:06:18.228Z,7.10
2017-09-16T03:11:21.451Z,6.47
2017-09-16T03:16:24.648Z,5.10
2017-09-16T03:21:27.914Z,4.13
2017-09-16T03:26:31.886Z,4.97
2017-09-16T03:31:35.091Z,5.47
2017-09-16T03:36:38.441Z,5.23
2017-09-16T03:41:42.407Z,6.20
2017-09-16T03:46:45.625Z,5.90
2017-09-16T03:51:48.808Z,5.07
2017-09-16T03:56:52.029Z,5.80
2017-09-16T04:18:05.536Z,4.77
2017-09-16T04:23:08.727Z,5.23
2017-09-16T04:28:11.917Z,3.65
2017-09-16T04:33:15.096Z,3.77
2017-09-16T04:38:18.285Z,4.17
2017-09-16T04:43:21.540Z,3.77
2017-09-16T04:48:24.746Z,5.93
2017-09-16T04:53:27.956Z,7.87
2017-09-16T04:58:31.172Z,8.27
2017-09-16T05:03:34.383Z,5.17
2017-09-16T05:08:37.579Z,4.40
2017-09-16T05:13:40.775Z,4.80
2017-09-16T05:18:43.958Z,3.85
2017-09-16T05:23:47.176Z,4.20
2017-09-16T05:28:50.363Z,5.00
2017-09-16T05:33:53.552Z,4.30
2017-09-16T05:38:57.508Z,4.00
2017-09-16T05:44:00.704Z,4.70
2017-09-16T05:49:03.893Z,4.10
2017-09-16T05:54:07.089Z,6.77
2017-09-16T05:59:11.073Z,9.20
2017-09-16T06:04:14.283Z,9.40
2017-09-16T06:09:17.498Z,6.57
2017-09-16T06:14:20.702Z,7.30
2017-09-16T06:19:23.924Z,7.57
2017-09-16T06:24:27.133Z,7.93
2017-09-16T06:29:30.354Z,8.43
2017-09-16T06:34:34.330Z,8.93
2017-09-16T06:39:37.534Z,11.13
2017-09-16T06:44:40.744Z,10.43
2017-09-16T06:49:43.946Z,9.30
2017-09-16T06:54:47.148Z,9.97
2017-09-16T06:59:50.351Z,11.80
2017-09-16T07:04:53.542Z,11.27
2017-09-16T07:09:57.026Z,12.50
2017-09-16T07:15:01.014Z,12.30
2017-09-16T07:20:04.246Z,11.50
2017-09-16T07:25:07.541Z,8.77
2017-09-16T07:30:10.752Z,8.70
2017-09-16T07:35:14.026Z,9.03
2017-09-16T07:40:17.257Z,8.57
2017-09-16T07:45:20.472Z,8.23
2017-09-16T07:50:23.678Z,9.30
2017-09-16T07:55:28.783Z,9.80
2017-09-16T08:00:32.176Z,9.20
2017-09-16T08:05:36.288Z,10.00
2017-09-16T08:10:39.517Z,8.97
2017-09-16T08:15:43.494Z,9.80
2017-09-16T08:20:46.701Z,9.33
2017-09-16T08:25:49.933Z,8.10
2017-09-16T08:30:53.161Z,9.97
2017-09-16T08:35:56.461Z,11.30
2017-09-16T08:41:00.457Z,14.37
2017-09-16T08:46:03.726Z,16.20
2017-09-16T08:51:06.942Z,16.40
2017-09-16T08:56:10.493Z,16.10
2017-09-16T09:01:14.651Z,15.27
2017-09-16T09:06:18.631Z,17.17
2017-09-16T09:11:21.867Z,18.47
2017-09-16T09:16:25.853Z,16.70
2017-09-16T09:21:29.194Z,16.63
2017-09-16T09:26:32.430Z,16.13
2017-09-16T09:31:36.474Z,14.83
2017-09-16T09:36:39.725Z,15.10
2017-09-16T09:41:43.110Z,15.20
2017-09-16T09:46:46.485Z,12.67
2017-09-16T09:51:50.467Z,13.87
2017-09-16T09:56:53.761Z,14.50
2017-09-16T10:01:56.998Z,14.30
2017-09-16T10:07:00.265Z,10.87
2017-09-16T10:12:03.492Z,9.13
2017-09-16T10:17:06.717Z,7.70
2017-09-16T10:22:09.918Z,7.53
2017-09-16T10:27:14.128Z,8.40
2017-09-16T10:32:17.337Z,7.83
2017-09-16T10:37:20.551Z,7.55
2017-09-16T10:42:24.201Z,9.23
2017-09-16T10:47:28.916Z,8.33
2017-09-16T10:52:32.512Z,7.50
2017-09-16T10:57:35.839Z,6.90
2017-09-16T11:02:39.063Z,6.70
2017-09-16T11:07:43.891Z,6.87
2017-09-16T11:12:47.908Z,7.40
2017-09-16T11:17:51.561Z,5.03
2017-09-16T11:22:54.792Z,4.83
2017-09-16T11:27:58.773Z,4.20
2017-09-16T11:33:02.086Z,4.20
2017-09-16T11:38:05.321Z,4.67
2017-09-16T11:43:09.295Z,3.10
2017-09-16T11:48:12.475Z,2.90
2017-09-16T11:53:15.710Z,2.50
2017-09-16T11:58:18.944Z,2.47
2017-09-16T12:03:22.153Z,1.63
2017-09-16T12:08:25.744Z,3.10
2017-09-16T12:13:28.916Z,2.67
2017-09-16T12:18:32.148Z,2.47
2017-09-16T12:23:35.315Z,2.60
2017-09-16T12:28:38.722Z,1.53
2017-09-16T12:33:42.706Z,2.17
2017-09-16T12:38:46.725Z,1.93
2017-09-16T12:43:50.040Z,2.13
2017-09-16T12:48:53.249Z,2.30
2017-09-16T12:53:56.466Z,1.73
2017-09-16T12:58:59.741Z,1.87
2017-09-16T13:04:02.977Z,1.80
2017-09-16T13:09:06.200Z,2.70
2017-09-16T13:14:09.424Z,2.03
2017-09-16T13:19:13.403Z,0.93
2017-09-16T13:24:16.621Z,1.33
2017-09-16T13:29:19.818Z,1.30
2017-09-16T13:34:23.054Z,1.40
2017-09-16T13:39:26.296Z,2.27
2017-09-16T13:44:29.518Z,2.47
2017-09-16T13:49:32.734Z,2.63
2017-09-16T13:54:35.969Z,2.53
2017-09-16T13:59:39.185Z,3.10
2017-09-16T14:04:42.486Z,3.20
2017-09-16T14:09:45.729Z,3.10
2017-09-16T14:14:49.751Z,3.87
2017-09-16T14:19:53.725Z,3.08
2017-09-16T14:24:56.921Z,4.50
2017-09-16T14:30:00.129Z,3.83
2017-09-16T14:35:03.695Z,3.20
2017-09-16T14:40:07.650Z,2.40
2017-09-16T14:45:11.688Z,2.70
2017-09-16T14:50:14.933Z,3.23
2017-09-16T14:55:18.148Z,2.83
2017-09-16T15:00:22.360Z,2.57
2017-09-16T15:05:26.536Z,3.10
2017-09-16T15:10:30.634Z,3.20
2017-09-16T15:15:33.867Z,3.00
2017-09-16T15:20:37.839Z,2.53
2017-09-16T15:25:41.045Z,2.57
2017-09-16T15:30:44.504Z,3.10
2017-09-16T15:35:48.527Z,2.03
2017-09-16T15:40:52.492Z,3.67
2017-09-16T15:45:55.754Z,3.00
2017-09-16T15:50:59.733Z,2.80
2017-09-16T15:56:02.966Z,2.80
2017-09-16T16:01:06.182Z,3.20
2017-09-16T16:06:09.397Z,3.50
2017-09-16T16:11:13.374Z,2.60
2017-09-16T16:16:16.633Z,4.07
2017-09-16T16:21:20.617Z,3.30
2017-09-16T16:26:23.979Z,4.20
2017-09-16T16:31:27.962Z,3.57
2017-09-16T16:36:31.181Z,5.00
2017-09-16T16:41:34.402Z,5.47
2017-09-16T16:46:37.706Z,4.27
2017-09-16T16:51:41.679Z,3.50
2017-09-16T16:56:44.944Z,2.77
2017-09-16T17:01:48.165Z,3.10
2017-09-16T17:06:52.144Z,4.30
2017-09-16T17:11:55.330Z,5.30
2017-09-16T17:16:58.661Z,3.37
2017-09-16T17:22:01.902Z,3.60
2017-09-16T17:27:05.124Z,3.07
2017-09-16T17:32:08.462Z,3.77
2017-09-16T17:37:11.705Z,2.90
2017-09-16T17:42:14.969Z,3.10
2017-09-16T17:47:18.201Z,3.72
2017-09-16T17:52:21.439Z,4.20
2017-09-16T17:57:24.751Z,3.70
2017-09-16T18:02:28.084Z,3.47
2017-09-16T18:07:31.507Z,3.40
2017-09-16T18:12:34.899Z,2.73
2017-09-16T18:17:38.902Z,3.13
2017-09-16T18:22:42.134Z,2.90
2017-09-16T18:27:46.141Z,3.50
2017-09-16T18:32:49.367Z,5.63
2017-09-16T18:37:53.363Z,8.40
2017-09-16T18:42:56.592Z,5.10
2017-09-16T18:48:00.627Z,3.70
2017-09-16T18:53:04.604Z,3.40
2017-09-16T18:58:07.945Z,3.67
2017-09-16T19:03:12.040Z,3.40
2017-09-16T19:08:15.260Z,3.50
2017-09-16T19:13:18.575Z,6.07
2017-09-16T19:18:21.801Z,6.60
2017-09-16T19:23:25.919Z,5.90
2017-09-16T19:28:29.217Z,4.70
2017-09-16T19:33:32.415Z,4.70
2017-09-16T19:38:35.666Z,4.60
2017-09-16T19:43:38.871Z,5.70
2017-09-16T19:48:42.106Z,5.30
2017-09-16T19:53:45.312Z,4.80
2017-09-16T19:58:48.625Z,5.25
2017-09-16T20:03:51.822Z,6.17
2017-09-16T20:08:55.163Z,5.97
2017-09-16T20:13:58.371Z,7.73
2017-09-16T20:19:01.611Z,8.23
2017-09-16T20:24:05.616Z,7.83
2017-09-16T20:29:08.824Z,8.40
2017-09-16T20:34:12.056Z,7.90
2017-09-16T20:39:16.085Z,9.33
2017-09-16T20:44:19.319Z,9.07
2017-09-16T20:49:22.573Z,8.37
2017-09-16T20:54:25.817Z,8.07
2017-09-16T20:59:29.082Z,7.10
2017-09-16T21:04:32.317Z,8.47
2017-09-16T21:09:36.293Z,8.43
2017-09-16T21:14:39.509Z,8.60
2017-09-16T21:19:42.738Z,8.33
2017-09-16T21:24:45.964Z,7.20
2017-09-16T21:29:50.041Z,7.60
2017-09-16T21:34:53.266Z,7.47
2017-09-16T21:39:56.495Z,8.23
2017-09-16T21:45:00.518Z,7.97
2017-09-16T21:50:04.483Z,8.37
2017-09-16T21:55:07.695Z,9.67
2017-09-16T22:00:11.039Z,9.40
2017-09-16T22:05:14.236Z,9.20
2017-09-16T22:10:17.553Z,8.87
2017-09-16T22:15:20.781Z,7.77
2017-09-16T22:20:24.757Z,7.93
2017-09-16T22:25:27.987Z,8.03
2017-09-16T22:30:31.186Z,8.50
2017-09-16T22:35:34.386Z,8.47
2017-09-16T22:40:37.812Z,8.83
2017-09-16T22:45:41.010Z,8.20
2017-09-16T22:50:44.222Z,9.30
2017-09-16T22:55:47.424Z,8.90
2017-09-16T23:00:50.880Z,9.40
2017-09-16T23:05:54.846Z,9.93
2017-09-16T23:10:58.044Z,8.17
2017-09-16T23:16:01.246Z,8.93
2017-09-16T23:21:04.467Z,10.20
2017-09-16T23:26:07.695Z,10.17
2017-09-16T23:31:10.940Z,10.50
2017-09-16T23:36:14.956Z,10.00
2017-09-16T23:41:18.939Z,9.13
2017-09-16T23:46:22.338Z,10.80
2017-09-16T23:51:25.546Z,11.10
2017-09-16T23:56:28.749Z,8.03
